createdAt,value
2018-02-24T00:00:53.167Z,6.40
2018-02-24T00:01:53.474Z,6.60
2018-02-24T00:02:53.778Z,6.70
2018-02-24T00:03:54.082Z,6.50
2018-02-24T00:04:54.387Z,6.40
2018-02-24T00:05:54.691Z,6.60
2018-02-24T00:06:54.996Z,6.60
2018-02-24T00:07:55.295Z,6.40
2018-02-24T00:08:55.607Z,6.80
2018-02-24T00:09:55.903Z,6.50
2018-02-24T00:10:56.206Z,6.70
2018-02-24T00:11:56.511Z,6.30
2018-02-24T00:12:56.815Z,6.70
2018-02-24T00:13:57.117Z,6.60
2018-02-24T00:14:57.423Z,7.10
2018-02-24T00:15:57.728Z,6.80
2018-02-24T00:16:58.033Z,6.60
2018-02-24T00:17:58.339Z,6.10
2018-02-24T00:18:58.642Z,6.30
2018-02-24T00:19:58.945Z,6.50
2018-02-24T00:20:59.239Z,7.10
2018-02-24T00:21:59.549Z,6.60
2018-02-24T00:22:59.858Z,6.50
2018-02-24T00:24:00.158Z,6.20
2018-02-24T00:25:00.463Z,6.60
2018-02-24T00:26:00.771Z,6.30
2018-02-24T00:27:01.076Z,7.20
2018-02-24T00:28:01.378Z,6.70
2018-02-24T00:29:01.683Z,6.60
2018-02-24T00:30:01.976Z,6.70
2018-02-24T00:31:02.281Z,7.20
2018-02-24T00:32:02.604Z,6.90
2018-02-24T00:33:02.906Z,6.80
2018-02-24T00:34:03.215Z,7.00
2018-02-24T00:35:03.520Z,6.40
2018-02-24T00:36:03.821Z,7.40
2018-02-24T00:37:04.129Z,6.60
2018-02-24T00:38:04.433Z,6.70
2018-02-24T00:39:04.738Z,6.20
2018-02-24T00:40:05.042Z,7.10
2018-02-24T00:41:05.345Z,6.60
2018-02-24T00:42:05.645Z,7.40
2018-02-24T00:43:05.976Z,6.50
2018-02-24T00:44:06.269Z,6.50
2018-02-24T00:45:06.575Z,6.30
2018-02-24T00:46:06.882Z,6.90
2018-02-24T00:47:07.185Z,6.50
2018-02-24T00:48:07.490Z,6.70
2018-02-24T00:49:07.794Z,6.60
2018-02-24T00:50:08.098Z,6.20
2018-02-24T00:51:08.402Z,7.00
2018-02-24T00:52:08.708Z,6.90
2018-02-24T00:53:09.016Z,7.10
2018-02-24T00:54:09.310Z,6.80
2018-02-24T00:55:09.616Z,6.80
2018-02-24T00:56:09.921Z,6.50
2018-02-24T00:57:10.225Z,6.90
2018-02-24T00:58:10.528Z,6.50
2018-02-24T00:59:10.833Z,6.70
2018-02-24T01:00:11.136Z,6.70
2018-02-24T01:01:11.444Z,6.70
2018-02-24T01:02:11.749Z,7.10
2018-02-24T01:03:12.056Z,6.70
2018-02-24T01:04:12.351Z,6.80
2018-02-24T01:05:12.656Z,6.80
2018-02-24T01:06:12.960Z,7.10
2018-02-24T01:07:13.273Z,6.80
2018-02-24T01:08:13.584Z,7.10
2018-02-24T01:09:13.888Z,7.00
2018-02-24T01:10:14.192Z,7.10
2018-02-24T01:11:14.500Z,6.80
2018-02-24T01:12:14.801Z,6.80
2018-02-24T01:13:15.106Z,6.50
2018-02-24T01:14:15.406Z,6.80
2018-02-24T01:15:15.718Z,6.90
2018-02-24T01:16:16.020Z,6.80
2018-02-24T01:17:16.320Z,7.00
2018-02-24T01:18:16.622Z,7.10
2018-02-24T01:19:16.929Z,7.00
2018-02-24T01:20:17.233Z,7.10
2018-02-24T01:21:17.539Z,6.50
2018-02-24T01:22:17.842Z,6.80
2018-02-24T01:23:18.146Z,7.20
2018-02-24T01:24:18.450Z,6.70
2018-02-24T01:25:18.761Z,7.10
2018-02-24T01:26:19.049Z,6.70
2018-02-24T01:27:19.354Z,7.00
2018-02-24T01:28:19.663Z,7.20
2018-02-24T01:29:19.967Z,7.40
2018-02-24T01:30:20.275Z,7.00
2018-02-24T01:31:20.576Z,7.10
2018-02-24T01:32:20.884Z,6.30
2018-02-24T01:33:21.191Z,6.90
2018-02-24T01:34:21.493Z,7.60
2018-02-24T01:35:21.796Z,7.10
2018-02-24T01:36:22.105Z,7.50
2018-02-24T01:37:22.405Z,7.10
2018-02-24T01:38:22.708Z,7.20
2018-02-24T01:39:23.014Z,6.40
2018-02-24T01:40:23.333Z,7.00
2018-02-24T01:41:23.620Z,7.30
2018-02-24T01:42:23.924Z,7.30
2018-02-24T01:43:24.228Z,7.10
2018-02-24T01:44:24.538Z,6.80
2018-02-24T01:45:24.830Z,7.00
2018-02-24T01:46:25.128Z,6.90
2018-02-24T01:47:25.433Z,7.50
2018-02-24T01:48:25.738Z,7.30
2018-02-24T01:49:26.043Z,7.00
2018-02-24T01:50:26.347Z,7.10
2018-02-24T01:51:26.651Z,7.40
2018-02-24T01:52:26.956Z,7.00
2018-02-24T01:53:27.261Z,6.80
2018-02-24T01:54:27.569Z,7.00
2018-02-24T01:55:27.873Z,7.30
2018-02-24T01:56:28.186Z,7.00
2018-02-24T01:57:28.480Z,6.80
2018-02-24T01:58:28.784Z,7.30
2018-02-24T01:59:29.091Z,7.50
2018-02-24T02:00:29.417Z,7.50
2018-02-24T02:01:29.692Z,7.30
2018-02-24T02:02:29.997Z,7.50
2018-02-24T02:03:30.301Z,7.40
2018-02-24T02:04:30.605Z,7.10
2018-02-24T02:05:30.908Z,7.30
2018-02-24T02:06:31.219Z,7.20
2018-02-24T02:07:31.517Z,7.20
2018-02-24T02:08:31.821Z,7.40
2018-02-24T02:09:32.128Z,7.10
2018-02-24T02:10:32.444Z,7.20
2018-02-24T02:11:32.745Z,7.10
2018-02-24T02:12:33.049Z,7.00
2018-02-24T02:13:33.354Z,7.40
2018-02-24T02:14:33.660Z,7.10
2018-02-24T02:15:33.964Z,7.50
2018-02-24T02:16:34.270Z,6.90
2018-02-24T02:17:34.572Z,7.50
2018-02-24T02:18:34.881Z,7.20
2018-02-24T02:19:35.179Z,7.10
2018-02-24T02:20:35.484Z,7.30
2018-02-24T02:21:35.798Z,7.80
2018-02-24T02:22:36.123Z,7.20
2018-02-24T02:23:36.426Z,7.50
2018-02-24T02:24:36.745Z,7.10
2018-02-24T02:25:37.051Z,7.50
2018-02-24T02:26:37.355Z,7.20
2018-02-24T02:27:37.660Z,7.00
2018-02-24T02:28:37.966Z,7.40
2018-02-24T02:29:38.268Z,7.80
2018-02-24T02:30:38.572Z,7.30
2018-02-24T02:31:38.878Z,7.80
2018-02-24T02:32:39.180Z,7.40
2018-02-24T02:33:39.480Z,7.80
2018-02-24T02:34:39.786Z,7.70
2018-02-24T02:35:40.090Z,7.10
2018-02-24T02:36:40.392Z,7.10
2018-02-24T02:37:40.697Z,7.50
2018-02-24T02:38:41.001Z,7.60
2018-02-24T02:39:41.305Z,7.60
2018-02-24T02:40:41.610Z,7.10
2018-02-24T02:41:41.921Z,7.10
2018-02-24T02:42:42.219Z,7.70
2018-02-24T02:43:42.519Z,7.20
2018-02-24T02:44:42.826Z,7.70
2018-02-24T02:45:43.130Z,7.30
2018-02-24T02:46:43.443Z,7.60
2018-02-24T02:47:43.753Z,7.80
2018-02-24T02:48:44.058Z,7.50
2018-02-24T02:49:44.366Z,7.30
2018-02-24T02:50:44.671Z,7.20
2018-02-24T02:51:44.977Z,7.40
2018-02-24T02:52:45.282Z,7.50
2018-02-24T02:53:45.585Z,7.40
2018-02-24T02:54:45.890Z,7.50
2018-02-24T02:55:46.199Z,7.30
2018-02-24T02:56:46.497Z,7.70
2018-02-24T02:57:46.803Z,7.10
2018-02-24T02:58:47.107Z,7.10
2018-02-24T02:59:47.411Z,7.40
2018-02-24T03:00:47.709Z,7.30
2018-02-24T03:01:48.024Z,7.20
2018-02-24T03:02:48.333Z,7.70
2018-02-24T03:03:48.634Z,7.70
2018-02-24T03:04:48.936Z,7.80
2018-02-24T03:05:49.239Z,7.50
2018-02-24T03:06:49.555Z,7.40
2018-02-24T03:07:49.846Z,7.50
2018-02-24T03:08:50.150Z,7.50
2018-02-24T03:09:50.459Z,7.50
2018-02-24T03:10:50.766Z,7.60
2018-02-24T03:11:51.066Z,7.50
2018-02-24T03:12:51.371Z,7.60
2018-02-24T03:13:51.679Z,7.60
2018-02-24T03:14:51.981Z,6.90
2018-02-24T03:15:52.286Z,7.60
2018-02-24T03:16:52.589Z,8.20
2018-02-24T03:17:52.903Z,7.60
2018-02-24T03:18:53.199Z,7.40
2018-02-24T03:19:53.503Z,7.40
2018-02-24T03:20:53.817Z,7.60
2018-02-24T03:21:54.123Z,7.90
2018-02-24T03:22:54.430Z,7.90
2018-02-24T03:23:54.732Z,7.70
2018-02-24T03:24:55.037Z,7.60
2018-02-24T03:25:55.344Z,7.30
2018-02-24T03:26:55.646Z,7.60
2018-02-24T03:27:55.950Z,7.80
2018-02-24T03:28:56.258Z,7.60
2018-02-24T03:29:56.556Z,7.50
2018-02-24T03:30:56.860Z,7.20
2018-02-24T03:31:57.165Z,7.40
2018-02-24T03:32:57.476Z,7.40
2018-02-24T03:33:57.780Z,7.70
2018-02-24T03:34:58.084Z,7.80
2018-02-24T03:35:58.388Z,7.60
2018-02-24T03:36:58.691Z,7.70
2018-02-24T03:37:58.999Z,7.70
2018-02-24T03:38:59.298Z,7.70
2018-02-24T03:39:59.607Z,7.80
2018-02-24T03:40:59.908Z,7.80
2018-02-24T03:42:00.213Z,7.20
2018-02-24T03:43:00.521Z,7.70
2018-02-24T03:44:00.832Z,7.60
2018-02-24T03:45:01.143Z,7.70
2018-02-24T03:46:01.458Z,7.80
2018-02-24T03:47:01.761Z,7.70
2018-02-24T03:48:02.065Z,8.10
2018-02-24T03:49:02.375Z,7.80
2018-02-24T03:50:02.656Z,7.90
2018-02-24T03:51:02.959Z,8.10
2018-02-24T03:52:03.263Z,7.70
2018-02-24T03:53:03.567Z,7.70
2018-02-24T03:54:03.871Z,7.90
2018-02-24T03:55:04.182Z,8.10
2018-02-24T03:56:04.498Z,7.90
2018-02-24T03:57:04.799Z,8.00
2018-02-24T03:58:05.104Z,8.00
2018-02-24T03:59:05.408Z,7.60
2018-02-24T04:00:05.710Z,8.10
2018-02-24T04:01:06.021Z,8.10
2018-02-24T04:02:06.316Z,7.90
2018-02-24T04:03:06.624Z,7.50
2018-02-24T04:04:06.924Z,7.70
2018-02-24T04:05:07.234Z,7.80
2018-02-24T04:06:07.533Z,8.10
2018-02-24T04:07:07.839Z,7.60
2018-02-24T04:08:08.143Z,8.10
2018-02-24T04:09:08.446Z,8.20
2018-02-24T04:10:08.753Z,8.10
2018-02-24T04:11:09.056Z,8.30
2018-02-24T04:12:09.362Z,7.80
2018-02-24T04:13:09.669Z,7.60
2018-02-24T04:14:09.976Z,8.20
2018-02-24T04:15:10.291Z,7.80
2018-02-24T04:16:10.605Z,7.70
2018-02-24T04:17:10.899Z,8.10
2018-02-24T04:18:11.201Z,7.40
2018-02-24T04:19:11.510Z,8.20
2018-02-24T04:20:11.819Z,8.10
2018-02-24T04:21:12.119Z,8.30
2018-02-24T04:22:12.422Z,7.80
2018-02-24T04:23:12.727Z,8.00
2018-02-24T04:24:13.032Z,8.30
2018-02-24T04:25:13.334Z,8.20
2018-02-24T04:26:13.643Z,8.10
2018-02-24T04:27:13.943Z,8.30
2018-02-24T04:28:14.248Z,7.80
2018-02-24T04:29:14.552Z,7.80
2018-02-24T04:30:14.863Z,8.40
2018-02-24T04:31:15.167Z,8.10
2018-02-24T04:32:15.473Z,8.50
2018-02-24T04:33:15.781Z,8.00
2018-02-24T04:34:16.074Z,8.20
2018-02-24T04:35:16.378Z,8.10
2018-02-24T04:36:16.681Z,8.10
2018-02-24T04:37:16.987Z,8.00
2018-02-24T04:38:17.288Z,7.90
2018-02-24T04:39:17.592Z,7.70
2018-02-24T04:40:17.903Z,8.10
2018-02-24T04:41:18.206Z,7.90
2018-02-24T04:42:18.510Z,8.40
2018-02-24T04:43:18.815Z,8.20
2018-02-24T04:44:19.118Z,8.00
2018-02-24T04:45:19.422Z,8.00
2018-02-24T04:46:19.728Z,8.00
2018-02-24T04:47:20.034Z,7.70
2018-02-24T04:48:20.332Z,8.60
2018-02-24T04:49:20.636Z,7.80
2018-02-24T04:50:20.942Z,8.20
2018-02-24T04:51:21.253Z,8.00
2018-02-24T04:52:21.558Z,8.00
2018-02-24T04:53:21.862Z,8.40
2018-02-24T04:54:22.177Z,8.20
2018-02-24T04:55:22.455Z,8.10
2018-02-24T04:56:22.760Z,8.50
2018-02-24T04:57:23.059Z,8.20
2018-02-24T04:59:55.022Z,8.60
2018-02-24T05:00:55.322Z,8.50
2018-02-24T05:01:55.628Z,8.10
2018-02-24T05:02:55.933Z,8.30
2018-02-24T05:03:56.236Z,8.60
2018-02-24T05:04:56.538Z,8.50
2018-02-24T05:05:56.843Z,8.20
2018-02-24T05:06:57.146Z,8.10
2018-02-24T05:07:57.449Z,7.90
2018-02-24T05:08:57.757Z,8.00
2018-02-24T05:09:58.056Z,7.90
2018-02-24T05:10:58.361Z,8.60
2018-02-24T05:11:58.666Z,8.00
2018-02-24T05:12:58.975Z,8.50
2018-02-24T05:13:59.274Z,8.60
2018-02-24T05:14:59.579Z,8.60
2018-02-24T05:15:59.884Z,8.00
2018-02-24T05:17:00.188Z,8.90
2018-02-24T05:18:00.521Z,8.20
2018-02-24T05:19:00.780Z,8.30
2018-02-24T05:20:01.085Z,8.70
2018-02-24T05:21:01.391Z,8.90
2018-02-24T05:22:01.695Z,7.50
2018-02-24T05:23:01.999Z,8.60
2018-02-24T05:24:02.304Z,8.40
2018-02-24T05:25:02.608Z,8.60
2018-02-24T05:26:02.913Z,7.90
2018-02-24T05:27:03.210Z,8.30
2018-02-24T05:28:03.520Z,8.50
2018-02-24T05:29:03.818Z,8.60
2018-02-24T05:30:04.120Z,8.50
2018-02-24T05:31:04.428Z,8.70
2018-02-24T05:32:04.732Z,8.40
2018-02-24T05:33:05.069Z,8.70
2018-02-24T05:34:05.342Z,8.10
2018-02-24T05:35:05.644Z,8.90
2018-02-24T05:36:05.949Z,8.10
2018-02-24T05:37:06.258Z,8.20
2018-02-24T05:38:06.560Z,8.30
2018-02-24T05:39:06.873Z,8.30
2018-02-24T05:40:07.168Z,8.60
2018-02-24T05:41:07.473Z,8.40
2018-02-24T05:42:07.780Z,9.00
2018-02-24T05:43:08.095Z,8.70
2018-02-24T05:44:08.399Z,9.00
2018-02-24T05:45:08.702Z,8.30
2018-02-24T05:46:09.006Z,8.40
2018-02-24T05:47:09.311Z,8.50
2018-02-24T05:48:09.616Z,8.50
2018-02-24T05:49:09.921Z,8.70
2018-02-24T05:50:10.223Z,9.00
2018-02-24T05:51:10.530Z,8.40
2018-02-24T05:52:10.834Z,7.80
2018-02-24T05:53:11.133Z,8.50
2018-02-24T05:54:11.437Z,8.70
2018-02-24T05:55:11.740Z,8.40
2018-02-24T05:56:12.046Z,9.20
2018-02-24T05:57:12.350Z,8.80
2018-02-24T05:58:12.650Z,8.50
2018-02-24T05:59:12.954Z,8.90
2018-02-24T06:00:13.262Z,9.20
2018-02-24T06:01:13.559Z,8.40
2018-02-24T06:02:13.873Z,8.60
2018-02-24T06:03:14.176Z,8.80
2018-02-24T06:04:14.485Z,8.00
2018-02-24T06:05:14.785Z,9.00
2018-02-24T06:06:15.090Z,8.60
2018-02-24T06:07:15.394Z,8.40
2018-02-24T06:08:15.699Z,8.70
2018-02-24T06:09:16.004Z,8.60
2018-02-24T06:10:16.303Z,8.80
2018-02-24T06:11:16.615Z,8.60
2018-02-24T06:12:16.914Z,8.90
2018-02-24T06:13:17.218Z,8.40
2018-02-24T06:14:17.522Z,8.90
2018-02-24T06:15:17.835Z,9.10
2018-02-24T06:16:18.150Z,8.50
2018-02-24T06:17:18.465Z,8.80
2018-02-24T06:18:18.769Z,8.50
2018-02-24T06:19:19.075Z,8.60
2018-02-24T06:20:19.377Z,8.40
2018-02-24T06:21:19.698Z,9.30
2018-02-24T06:22:19.987Z,8.50
2018-02-24T06:23:20.291Z,8.60
2018-02-24T06:24:20.594Z,8.70
2018-02-24T06:25:20.895Z,8.50
2018-02-24T06:26:21.198Z,8.80
2018-02-24T06:27:21.503Z,8.80
2018-02-24T06:28:21.807Z,9.00
2018-02-24T06:29:22.111Z,9.10
2018-02-24T06:30:22.416Z,9.00
2018-02-24T06:31:22.719Z,8.50
2018-02-24T06:32:23.035Z,8.50
2018-02-24T06:33:23.319Z,8.80
2018-02-24T06:35:55.282Z,9.20
2018-02-24T06:36:55.580Z,9.10
2018-02-24T06:37:55.881Z,8.90
2018-02-24T06:38:56.189Z,8.90
2018-02-24T06:39:56.493Z,8.70
2018-02-24T06:40:56.798Z,8.80
2018-02-24T06:41:57.102Z,8.70
2018-02-24T06:42:57.418Z,8.50
2018-02-24T06:43:57.727Z,9.30
2018-02-24T06:44:58.030Z,9.00
2018-02-24T06:45:58.334Z,8.60
2018-02-24T06:46:58.638Z,9.10
2018-02-24T06:47:58.947Z,8.30
2018-02-24T06:48:59.244Z,9.00
2018-02-24T06:49:59.549Z,8.70
2018-02-24T06:50:59.859Z,8.60
2018-02-24T06:52:00.160Z,8.20
2018-02-24T06:53:00.465Z,8.40
2018-02-24T06:54:00.769Z,9.10
2018-02-24T06:55:01.074Z,8.70
2018-02-24T06:56:01.379Z,9.00
2018-02-24T06:57:01.684Z,9.10
2018-02-24T06:58:01.985Z,8.60
2018-02-24T06:59:02.291Z,8.90
2018-02-24T07:00:02.591Z,9.00
2018-02-24T07:01:02.895Z,9.20
2018-02-24T07:02:03.205Z,9.20
2018-02-24T07:03:03.509Z,9.00
2018-02-24T07:04:03.816Z,9.20
2018-02-24T07:05:04.117Z,8.90
2018-02-24T07:06:04.420Z,9.40
2018-02-24T07:07:04.720Z,9.10
2018-02-24T07:08:05.028Z,8.40
2018-02-24T07:09:05.337Z,8.80
2018-02-24T07:10:05.633Z,8.80
2018-02-24T07:11:05.937Z,9.20
2018-02-24T07:12:06.254Z,9.10
2018-02-24T07:13:06.550Z,8.80
2018-02-24T07:14:06.854Z,9.00
2018-02-24T07:15:07.158Z,9.00
2018-02-24T07:16:07.462Z,9.10
2018-02-24T07:17:07.771Z,8.90
2018-02-24T07:18:08.066Z,9.00
2018-02-24T07:19:08.375Z,9.30
2018-02-24T07:20:08.674Z,8.90
2018-02-24T07:21:08.972Z,8.80
2018-02-24T07:22:09.284Z,8.60
2018-02-24T07:23:09.595Z,9.40
2018-02-24T07:24:09.883Z,8.80
2018-02-24T07:25:10.186Z,8.70
2018-02-24T07:26:10.491Z,9.30
2018-02-24T07:27:10.795Z,8.50
2018-02-24T07:28:11.100Z,8.50
2018-02-24T07:29:11.397Z,8.70
2018-02-24T07:30:11.702Z,9.10
2018-02-24T07:31:12.010Z,8.70
2018-02-24T07:32:12.319Z,9.30
2018-02-24T07:33:12.624Z,9.10
2018-02-24T07:34:12.974Z,8.90
2018-02-24T07:35:13.230Z,8.90
2018-02-24T07:36:13.539Z,8.60
2018-02-24T07:37:13.829Z,9.30
2018-02-24T07:38:14.125Z,9.20
2018-02-24T07:39:14.428Z,9.10
2018-02-24T07:40:14.730Z,9.20
2018-02-24T07:41:15.044Z,8.90
2018-02-24T07:42:15.348Z,9.10
2018-02-24T07:43:15.652Z,9.30
2018-02-24T07:44:15.955Z,8.80
2018-02-24T07:45:16.259Z,8.90
2018-02-24T07:46:16.562Z,9.30
2018-02-24T07:47:16.866Z,9.20
2018-02-24T07:48:17.166Z,8.80
2018-02-24T07:49:17.470Z,9.30
2018-02-24T07:50:17.774Z,8.90
2018-02-24T07:51:18.083Z,9.10
2018-02-24T07:52:18.387Z,9.30
2018-02-24T07:53:18.889Z,9.40
2018-02-24T07:54:18.996Z,9.20
2018-02-24T07:55:19.293Z,9.20
2018-02-24T07:56:19.607Z,9.00
2018-02-24T07:57:19.912Z,9.30
2018-02-24T07:58:20.214Z,9.40
2018-02-24T07:59:20.527Z,8.80
2018-02-24T08:00:20.823Z,9.40
2018-02-24T08:01:21.128Z,9.00
2018-02-24T08:02:21.436Z,9.20
2018-02-24T08:03:21.742Z,8.70
2018-02-24T08:04:22.096Z,9.20
2018-02-24T08:05:22.345Z,8.60
2018-02-24T08:06:22.652Z,9.50
2018-02-24T08:07:22.955Z,8.90
2018-02-24T08:08:23.256Z,8.90
2018-02-24T08:09:23.567Z,9.20
2018-02-24T08:10:23.865Z,9.00
2018-02-24T08:11:24.171Z,9.10
2018-02-24T08:12:24.473Z,9.20
2018-02-24T08:13:24.778Z,9.50
2018-02-24T08:14:25.083Z,9.20
2018-02-24T08:15:25.384Z,9.00
2018-02-24T08:16:25.691Z,9.00
2018-02-24T08:17:25.996Z,9.20
2018-02-24T08:18:26.300Z,9.30
2018-02-24T08:19:26.605Z,8.70
2018-02-24T08:20:26.906Z,8.90
2018-02-24T08:21:27.210Z,9.40
2018-02-24T08:22:27.515Z,8.80
2018-02-24T08:23:27.826Z,9.10
2018-02-24T08:24:28.130Z,8.70
2018-02-24T08:25:28.433Z,9.10
2018-02-24T08:26:28.738Z,8.60
2018-02-24T08:27:29.043Z,9.50
2018-02-24T08:28:29.347Z,9.10
2018-02-24T08:29:29.652Z,9.00
2018-02-24T08:30:29.960Z,9.30
2018-02-24T08:31:30.260Z,9.40
2018-02-24T08:32:30.564Z,8.90
2018-02-24T08:33:30.868Z,9.10
2018-02-24T08:34:31.177Z,8.90
2018-02-24T08:35:31.853Z,8.70
2018-02-24T08:36:32.146Z,9.50
2018-02-24T08:37:32.453Z,9.10
2018-02-24T08:38:32.395Z,9.30
2018-02-24T08:39:32.697Z,8.70
2018-02-24T08:40:32.998Z,9.00
2018-02-24T08:41:33.308Z,9.40
2018-02-24T08:42:33.606Z,8.50
2018-02-24T08:43:33.911Z,8.70
2018-02-24T08:44:34.215Z,9.30
2018-02-24T08:45:34.520Z,8.50
2018-02-24T08:46:34.824Z,9.20
2018-02-24T08:47:35.128Z,9.30
2018-02-24T08:48:35.432Z,9.00
2018-02-24T08:49:35.736Z,9.20
2018-02-24T08:50:36.037Z,9.20
2018-02-24T08:51:36.345Z,9.60
2018-02-24T08:52:36.644Z,8.30
2018-02-24T08:53:36.949Z,8.60
2018-02-24T08:54:37.254Z,9.00
2018-02-24T08:55:37.558Z,9.10
2018-02-24T08:56:37.862Z,9.10
2018-02-24T08:57:38.166Z,9.10
2018-02-24T08:58:38.474Z,8.90
2018-02-24T08:59:38.775Z,9.30
2018-02-24T09:00:39.083Z,9.40
2018-02-24T09:01:39.384Z,9.00
2018-02-24T09:02:39.682Z,8.90
2018-02-24T09:03:39.987Z,9.10
2018-02-24T09:04:40.293Z,9.00
2018-02-24T09:05:40.604Z,8.50
2018-02-24T09:06:40.907Z,8.70
2018-02-24T09:07:41.212Z,9.70
2018-02-24T09:08:41.516Z,8.80
2018-02-24T09:09:41.822Z,9.10
2018-02-24T09:10:42.127Z,8.50
2018-02-24T09:11:42.426Z,8.80
2018-02-24T09:12:42.733Z,8.50
2018-02-24T09:13:43.034Z,8.70
2018-02-24T09:14:43.339Z,9.30
2018-02-24T09:15:43.685Z,9.00
2018-02-24T09:16:43.995Z,8.60
2018-02-24T09:17:44.296Z,9.30
2018-02-24T09:18:44.600Z,9.30
2018-02-24T09:19:44.904Z,8.80
2018-02-24T09:20:45.220Z,9.20
2018-02-24T09:21:45.511Z,9.00
2018-02-24T09:22:45.815Z,9.00
2018-02-24T09:23:46.120Z,8.50
2018-02-24T09:24:46.424Z,8.70
2018-02-24T09:25:46.728Z,8.60
2018-02-24T09:26:47.033Z,8.80
2018-02-24T09:27:47.344Z,8.70
2018-02-24T09:28:47.639Z,8.90
2018-02-24T09:29:47.944Z,8.80
2018-02-24T09:30:48.265Z,8.80
2018-02-24T09:31:48.556Z,8.80
2018-02-24T09:32:48.860Z,8.80
2018-02-24T09:33:49.179Z,8.50
2018-02-24T09:34:49.464Z,8.50
2018-02-24T09:35:49.768Z,8.90
2018-02-24T09:36:50.070Z,9.10
2018-02-24T09:37:50.385Z,8.80
2018-02-24T09:38:50.691Z,9.10
2018-02-24T09:39:50.991Z,8.80
2018-02-24T09:40:51.286Z,9.10
2018-02-24T09:41:51.591Z,8.40
2018-02-24T09:42:51.894Z,8.80
2018-02-24T09:43:52.200Z,8.30
2018-02-24T09:44:52.516Z,8.70
2018-02-24T09:45:52.809Z,8.50
2018-02-24T09:46:53.111Z,9.20
2018-02-24T09:47:53.421Z,8.80
2018-02-24T09:48:53.718Z,8.60
2018-02-24T09:49:54.024Z,9.00
2018-02-24T09:50:54.328Z,8.50
2018-02-24T09:51:54.633Z,9.00
2018-02-24T09:52:54.937Z,8.50
2018-02-24T09:53:55.242Z,9.40
2018-02-24T09:54:55.546Z,8.70
2018-02-24T09:55:55.852Z,9.00
2018-02-24T09:56:56.155Z,8.70
2018-02-24T09:57:56.458Z,8.30
2018-02-24T09:58:56.761Z,9.00
2018-02-24T09:59:57.065Z,8.90
2018-02-24T10:00:57.370Z,8.50
2018-02-24T10:01:57.680Z,8.50
2018-02-24T10:02:57.984Z,8.50
2018-02-24T10:03:58.289Z,8.70
2018-02-24T10:04:58.593Z,8.30
2018-02-24T10:05:58.905Z,8.90
2018-02-24T10:06:59.213Z,8.90
2018-02-24T10:07:59.517Z,8.70
2018-02-24T10:08:59.822Z,8.70
2018-02-24T10:10:00.128Z,9.00
2018-02-24T10:11:00.430Z,8.50
2018-02-24T10:12:00.726Z,8.50
2018-02-24T10:13:01.033Z,8.80
2018-02-24T10:14:01.337Z,8.60
2018-02-24T10:15:01.694Z,8.60
2018-02-24T10:16:01.943Z,8.80
2018-02-24T10:17:02.249Z,8.60
2018-02-24T10:18:02.552Z,8.20
2018-02-24T10:19:02.859Z,8.60
2018-02-24T10:20:03.164Z,8.80
2018-02-24T10:21:03.468Z,8.30
2018-02-24T10:22:03.770Z,8.30
2018-02-24T10:23:04.078Z,8.40
2018-02-24T10:24:04.400Z,8.10
2018-02-24T10:25:04.684Z,8.30
2018-02-24T10:26:04.988Z,8.40
2018-02-24T10:27:05.293Z,8.40
2018-02-24T10:28:05.598Z,8.20
2018-02-24T10:29:05.904Z,8.30
2018-02-24T10:30:06.208Z,8.20
2018-02-24T10:31:06.518Z,7.90
2018-02-24T10:32:06.812Z,7.90
2018-02-24T10:33:07.118Z,8.40
2018-02-24T10:34:07.423Z,8.30
2018-02-24T10:35:07.727Z,8.50
2018-02-24T10:36:08.031Z,7.90
2018-02-24T10:37:08.338Z,8.20
2018-02-24T10:38:08.646Z,8.60
2018-02-24T10:39:08.950Z,8.20
2018-02-24T10:40:09.254Z,8.00
2018-02-24T10:41:09.557Z,8.70
2018-02-24T10:42:09.867Z,8.50
2018-02-24T10:43:10.164Z,8.30
2018-02-24T10:44:10.469Z,8.50
2018-02-24T10:45:10.781Z,7.80
2018-02-24T10:46:11.089Z,8.20
2018-02-24T10:47:11.395Z,8.40
2018-02-24T10:48:11.697Z,7.70
2018-02-24T10:49:12.002Z,8.70
2018-02-24T10:50:12.306Z,7.90
2018-02-24T10:51:12.611Z,8.00
2018-02-24T10:52:12.915Z,8.30
2018-02-24T10:53:13.219Z,8.30
2018-02-24T10:54:13.522Z,8.20
2018-02-24T10:55:13.827Z,8.10
2018-02-24T10:56:14.131Z,7.60
2018-02-24T10:57:14.441Z,7.70
2018-02-24T10:58:14.745Z,8.40
2018-02-24T10:59:15.050Z,8.40
2018-02-24T11:00:15.360Z,8.10
2018-02-24T11:01:15.657Z,7.70
2018-02-24T11:02:15.960Z,7.90
2018-02-24T11:03:16.261Z,8.10
2018-02-24T11:04:16.575Z,7.80
2018-02-24T11:05:16.888Z,8.30
2018-02-24T11:06:17.168Z,7.70
2018-02-24T11:07:17.485Z,7.50
2018-02-24T11:08:17.784Z,8.20
2018-02-24T11:09:18.087Z,7.70
2018-02-24T11:10:18.392Z,7.60
2018-02-24T11:11:18.698Z,7.40
2018-02-24T11:12:19.002Z,7.70
2018-02-24T11:13:19.307Z,8.00
2018-02-24T11:14:19.609Z,7.90
2018-02-24T11:15:19.915Z,7.60
2018-02-24T11:16:20.220Z,7.40
2018-02-24T11:17:20.522Z,7.70
2018-02-24T11:18:20.832Z,7.50
2018-02-24T11:19:21.135Z,8.10
2018-02-24T11:20:21.439Z,8.00
2018-02-24T11:21:21.743Z,7.30
2018-02-24T11:22:22.047Z,7.70
2018-02-24T11:23:22.352Z,8.20
2018-02-24T11:24:22.656Z,7.80
2018-02-24T11:25:22.961Z,8.00
2018-02-24T11:26:23.263Z,7.70
2018-02-24T11:27:23.567Z,7.90
2018-02-24T11:28:23.871Z,7.80
2018-02-24T11:29:24.181Z,7.60
2018-02-24T11:30:24.505Z,7.60
2018-02-24T11:31:24.799Z,7.60
2018-02-24T11:32:25.105Z,7.50
2018-02-24T11:33:25.415Z,8.30
2018-02-24T11:34:25.714Z,7.70
2018-02-24T11:35:26.019Z,7.60
2018-02-24T11:36:26.317Z,7.60
2018-02-24T11:37:26.628Z,8.00
2018-02-24T11:38:26.926Z,8.00
2018-02-24T11:39:27.231Z,7.70
2018-02-24T11:40:27.535Z,7.50
2018-02-24T11:41:27.840Z,7.30
2018-02-24T11:42:28.145Z,7.60
2018-02-24T11:43:28.449Z,7.80
2018-02-24T11:44:28.754Z,7.50
2018-02-24T11:45:29.059Z,7.40
2018-02-24T11:46:29.363Z,7.90
2018-02-24T11:47:29.658Z,7.30
2018-02-24T11:48:29.980Z,7.70
2018-02-24T11:49:30.277Z,7.60
2018-02-24T11:50:30.581Z,7.30
2018-02-24T11:51:30.890Z,7.50
2018-02-24T11:52:31.200Z,7.80
2018-02-24T11:53:31.505Z,7.70
2018-02-24T11:54:31.809Z,7.60
2018-02-24T11:55:32.114Z,7.80
2018-02-24T11:56:32.420Z,7.70
2018-02-24T11:57:32.727Z,7.40
2018-02-24T11:58:33.029Z,7.10
2018-02-24T11:59:33.334Z,7.30
2018-02-24T12:00:33.633Z,7.60
2018-02-24T12:01:33.940Z,7.40
2018-02-24T12:02:34.242Z,7.10
2018-02-24T12:03:34.552Z,7.70
2018-02-24T12:04:34.855Z,7.70
2018-02-24T12:05:35.158Z,7.30
2018-02-24T12:06:35.463Z,7.30
2018-02-24T12:07:35.820Z,7.60
2018-02-24T12:08:36.073Z,7.60
2018-02-24T12:09:36.379Z,6.90
2018-02-24T12:10:36.683Z,7.60
2018-02-24T12:11:36.983Z,7.50
2018-02-24T12:12:37.287Z,7.00
2018-02-24T12:13:37.591Z,7.10
2018-02-24T12:14:37.896Z,7.00
2018-02-24T12:15:38.200Z,7.60
2018-02-24T12:16:38.504Z,7.00
2018-02-24T12:17:38.808Z,7.70
2018-02-24T12:18:39.111Z,7.30
2018-02-24T12:19:39.424Z,7.60
2018-02-24T12:20:39.726Z,7.50
2018-02-24T12:21:40.035Z,7.50
2018-02-24T12:22:40.334Z,7.40
2018-02-24T12:23:40.639Z,7.10
2018-02-24T12:24:40.943Z,6.80
2018-02-24T12:25:41.248Z,7.10
2018-02-24T12:26:41.552Z,6.80
2018-02-24T12:27:41.857Z,7.10
2018-02-24T12:28:42.161Z,7.30
2018-02-24T12:29:42.490Z,7.20
2018-02-24T12:30:42.758Z,7.30
2018-02-24T12:31:43.056Z,6.90
2018-02-24T12:32:43.359Z,6.50
2018-02-24T12:33:43.670Z,6.80
2018-02-24T12:34:43.972Z,6.70
2018-02-24T12:35:44.279Z,7.40
2018-02-24T12:36:44.581Z,7.00
2018-02-24T12:37:44.891Z,6.80
2018-02-24T12:38:45.190Z,7.10
2018-02-24T12:39:45.495Z,7.10
2018-02-24T12:40:45.801Z,7.10
2018-02-24T12:41:46.103Z,7.00
2018-02-24T12:42:46.405Z,6.70
2018-02-24T12:43:46.709Z,6.40
2018-02-24T12:44:47.019Z,7.10
2018-02-24T12:45:47.321Z,6.90
2018-02-24T12:46:47.627Z,7.10
2018-02-24T12:47:47.932Z,7.10
2018-02-24T12:48:48.243Z,6.60
2018-02-24T12:49:48.541Z,7.30
2018-02-24T12:50:48.843Z,6.50
2018-02-24T12:51:49.150Z,6.80
2018-02-24T12:52:49.449Z,6.80
2018-02-24T12:53:49.753Z,6.50
2018-02-24T12:54:50.057Z,6.80
2018-02-24T12:55:50.362Z,6.80
2018-02-24T12:56:50.666Z,6.90
2018-02-24T12:57:50.973Z,6.80
2018-02-24T12:58:51.274Z,6.70
2018-02-24T12:59:51.575Z,7.30
2018-02-24T13:00:51.883Z,6.60
2018-02-24T13:01:52.188Z,7.10
2018-02-24T13:02:52.489Z,7.00
2018-02-24T13:03:52.793Z,7.20
2018-02-24T13:04:53.103Z,6.80
2018-02-24T13:05:53.407Z,7.30
2018-02-24T13:06:53.711Z,6.80
2018-02-24T13:07:54.016Z,6.80
2018-02-24T13:08:54.319Z,6.50
2018-02-24T13:09:54.625Z,6.60
2018-02-24T13:10:54.929Z,6.80
2018-02-24T13:11:55.232Z,6.30
2018-02-24T13:12:55.555Z,6.70
2018-02-24T13:13:55.884Z,7.10
2018-02-24T13:14:56.147Z,6.70
2018-02-24T13:15:56.451Z,7.00
2018-02-24T13:16:56.762Z,6.60
2018-02-24T13:17:57.067Z,6.60
2018-02-24T13:18:57.370Z,6.20
2018-02-24T13:19:57.695Z,6.80
2018-02-24T13:20:57.984Z,6.40
2018-02-24T13:21:58.287Z,6.70
2018-02-24T13:22:58.588Z,7.00
2018-02-24T13:23:58.892Z,6.90
2018-02-24T13:24:59.198Z,6.60
2018-02-24T13:25:59.496Z,6.30